Lake Charles Regional Airport
KLCH : now visible

Airfield :











YOU CAN JOIN US ON...

 
LOGIN :

Register | Disclaimer

   EN    FR    IT 

 









Legend :    VFR   Marginal VFR   IFR   Intensive IFR   Very Intensive IFR
Visi :
Ceiling :
>= 8 km
>= 3000ft
5 to 8 km
1000 to 3000 ft
1500m to 5 km
500 to 1000 ft
800 to 1500m
200 to 500 ft
< 800m
< 200 ft
Symbols :   Thunderstorms  Fog  Heavy snow  Heavy precipitations  Wind > 20 kt






- Airport Elevation : 15 ft
- IATA code : LCH


KLCH - Lake Charles Regional

CURRENT METAR :
  • 082053Z 15008KT 10SM TS FEW120 28/26 A3010 RMK AO2 LTG DSNT NE AND W RAE06 TSB49 SLP199 P0001 60027 T02830256 56012

EXPIRED METARs :
  • 082027Z 00000KT 10SM FEW055 FEW070 30/24 A3010 RMK AO2 LTG DSNT NE RAE06 P0001 T03000244
  • 082012Z 00000KT 10SM VCTS SCT065 BKN080 28/24 A3011 RMK AO2 LTG DSNT NE RAE06 P0001 T02830244
  • 081953Z 00000KT 10SM -RA FEW036 BKN080 OVC090 27/24 A3010 RMK AO2 PK WND 05027/1931 WSHFT 1921 LTG DSNT N AND NE RAB21 TSB27E48 SLP200 P0026 T02670244
  • 081927Z 08019G23KT 2SM +TSRA BR FEW022 BKN035 27/24 A3012 RMK AO2 LTG DSNT ALQDS RAB21 TSB27 P0007 T02670244
  • 081853Z 22005KT 10SM CLR 32/23 A3011 RMK AO2 LTG DSNT ALQDS SLP202 T03220228
  • 081840Z VRB05KT 10SM CLR 32/23 A3011 RMK AO2 LTG DSNT SW-N T03220228
  • 081821Z 20004KT 10SM VCTS CLR 32/22 A3011 RMK AO2 LTG DSNT ALQDS T03220222

TAF KLCH
Valid from the 08 at 18:00 until the 09 at 18:00 UTC


081720Z 0818/0918 18007KT P6SM VCTS FEW030 SCT050CB SCT250
FM090100 VRB03KT P6SM SCT250
KZHU FIR / North America



MET'MAP, your aeronautical weather chart ! - Copyright ORBIFLY December 2007 - Disclaimer

ORBIFLY MET'MAP TEAM :

Programming & Development : Alexandra Zaïnal
Concept & original design : Baudouin d'Aumeries
Assistance for programming : Marc-Olivier Méhu
Technical & hardware support : Manuel Goepfert

Contact : metmap@orbifly.com




SOURCES & CREDITS :

   NOAA       Earth
Advisory